»·PEaware :: N72C KBOI-KMYL

N72C :: KBOI-KMYL

FLIGHT INFORMATION

Flight Status: Arrived
Operator: Privately registered:
United States
More flights under this callsign
Pilot: Charles C. (26995)
Aircraft: SOCATA TBM-900
(TBM9)
More flights by this aircraft type
Origin: KBOI Boise Air Terminal/Gowen
United States
Destination: KMYL McCall
United States
More flights between these airports :: More routes between these airports
Route: GOWEN4 BOI V253 BANGS SIDZY
File this flight plan on PilotEdge
Remarks:
Altitude:
(Current/Filed)
12,000ft
Speed:
(Current/Filed)
270kts
Departed: 15-Nov-20 09:13 AM
Arrived: 15-Nov-20 09:57 AM
Distance/Time
Traveled:
80nm/0:44
Distance/Time
To Go:
Arrived

Flight Plot

Page will automatically refresh every two minutes.

Flight plan parsing failed; only flown route is shown


Map Options




Map Legend


Flown Route
Filed Route
Departure Airport
Arrival Airport
Navaid (VOR, NDB)
Fix

Horizontal Profiles

Position Reports

Time Latitude Longitude Heading Altitude Ground
Speed
15-Nov-20 08:51 43.562236 -116.206292 270 2865ft 0kts
15-Nov-20 08:52 43.562236 -116.206292 270 2865ft 0kts
15-Nov-20 08:53 43.562236 -116.206292 270 2865ft 0kts
15-Nov-20 08:54 43.562236 -116.206292 270 2865ft 0kts
15-Nov-20 08:55 43.562236 -116.206292 270 2865ft 0kts
15-Nov-20 08:56 43.562236 -116.206292 270 2865ft 0kts
15-Nov-20 08:57 43.562236 -116.206292 270 2865ft 0kts
15-Nov-20 08:58 43.562236 -116.206292 270 2865ft 0kts
15-Nov-20 08:59 43.562236 -116.206292 270 2865ft 0kts
15-Nov-20 09:00 43.562236 -116.206292 270 2865ft 0kts
15-Nov-20 09:01 43.562236 -116.206293 270 2865ft 0kts
15-Nov-20 09:02 43.562086 -116.206386 159 2864ft 0kts
15-Nov-20 09:03 43.562085 -116.206386 159 2864ft 0kts
15-Nov-20 09:04 43.562085 -116.206386 159 2864ft 0kts
15-Nov-20 09:05 43.562302 -116.210106 293 2858ft 29kts
15-Nov-20 09:06 43.563964 -116.214954 293 2854ft 9kts
15-Nov-20 09:07 43.565509 -116.219487 296 2849ft 33kts
15-Nov-20 09:08 43.569937 -116.232575 293 2831ft 24kts
15-Nov-20 09:09 43.570993 -116.236009 250 2824ft 0kts
15-Nov-20 09:10 43.570993 -116.236009 250 2824ft 0kts
15-Nov-20 09:11 43.569920 -116.236080 112 2826ft 2kts
15-Nov-20 09:12 43.559824 -116.207943 117 3819ft 119kts
15-Nov-20 09:13 43.532124 -116.223097 235 5831ft 155kts
15-Nov-20 09:14 43.504409 -116.275630 240 7789ft 170kts
15-Nov-20 09:15 43.491824 -116.329739 316 9848ft 148kts
15-Nov-20 09:16 43.518538 -116.285834 73 11421ft 199kts
15-Nov-20 09:17 43.544005 -116.210310 48 11987ft 241kts
15-Nov-20 09:18 43.608303 -116.193359 353 11982ft 247kts
15-Nov-20 09:19 43.679781 -116.193632 352 11975ft 253kts
15-Nov-20 09:20 43.753792 -116.194443 352 11975ft 255kts
15-Nov-20 09:21 43.826633 -116.195276 352 11975ft 255kts
15-Nov-20 09:22 43.900934 -116.196131 352 11974ft 255kts
15-Nov-20 09:23 43.975107 -116.196752 352 11974ft 255kts
15-Nov-20 09:24 44.049642 -116.197839 352 11973ft 256kts
15-Nov-20 09:25 44.124453 -116.191705 357 11974ft 258kts
15-Nov-20 09:26 44.199035 -116.183027 357 11958ft 259kts
15-Nov-20 09:27 44.274239 -116.174257 358 11918ft 259kts
15-Nov-20 09:28 44.348018 -116.169727 350 11889ft 253kts
15-Nov-20 09:29 44.419393 -116.175539 350 11624ft 256kts
15-Nov-20 09:30 44.475409 -116.180434 350 11146ft 253kts
15-Nov-20 09:31 44.475878 -116.180475 350 11141ft 252kts
15-Nov-20 09:32 44.543226 -116.186435 349 11021ft 242kts
15-Nov-20 09:33 44.612739 -116.192575 350 11017ft 249kts
15-Nov-20 09:34 44.683490 -116.198846 350 11017ft 251kts
15-Nov-20 09:35 44.754707 -116.205175 350 10997ft 252kts
15-Nov-20 09:36 44.825464 -116.178533 13 10835ft 267kts
15-Nov-20 09:37 44.896829 -116.144495 13 10790ft 263kts
15-Nov-20 09:38 44.968517 -116.110230 13 10791ft 263kts
15-Nov-20 09:39 45.038917 -116.076487 13 10791ft 265kts
15-Nov-20 09:40 45.108789 -116.042906 12 10784ft 255kts
15-Nov-20 09:41 45.175484 -116.010772 12 10781ft 242kts
15-Nov-20 09:42 45.233495 -116.008875 319 10794ft 195kts
15-Nov-20 09:43 45.283272 -116.035816 20 10775ft 221kts
15-Nov-20 09:44 45.274448 -115.977952 202 10787ft 171kts
15-Nov-20 09:45 45.228938 -115.996001 198 10788ft 169kts
15-Nov-20 09:46 45.185319 -116.001722 207 10787ft 136kts
15-Nov-20 09:47 45.146646 -116.016722 200 10217ft 157kts
15-Nov-20 09:48 45.105228 -116.030907 198 9470ft 139kts
15-Nov-20 09:49 45.072589 -116.042075 200 9323ft 102kts
15-Nov-20 09:50 45.043568 -116.052406 198 8706ft 115kts
15-Nov-20 09:51 45.013516 -116.063256 196 7936ft 112kts
15-Nov-20 09:52 44.983811 -116.073994 195 7196ft 110kts
15-Nov-20 09:53 44.957315 -116.083581 193 6442ft 86kts
15-Nov-20 09:54 44.935043 -116.091603 193 5986ft 88kts
15-Nov-20 09:55 44.909638 -116.100460 189 5357ft 93kts
15-Nov-20 09:56 44.888673 -116.101754 178 5015ft 32kts
15-Nov-20 09:57 44.891661 -116.101083 357 5019ft 25kts
15-Nov-20 09:58 44.892959 -116.099585 39 5026ft 13kts
15-Nov-20 09:59 44.895330 -116.096524 327 5037ft 0kts
15-Nov-20 10:00 44.895330 -116.096524 327 5037ft 0kts
15-Nov-20 10:01 44.895330 -116.096524 327 5037ft 0kts
15-Nov-20 10:02 44.895330 -116.096524 327 5037ft 0kts
15-Nov-20 10:03 44.895330 -116.096524 327 5037ft 0kts
15-Nov-20 10:04 44.895330 -116.096524 327 5037ft 0kts
15-Nov-20 10:05 44.895330 -116.096524 327 5037ft 0kts
15-Nov-20 10:06 44.895330 -116.096524 327 5037ft 0kts
15-Nov-20 10:07 44.895330 -116.096524 327 5037ft 0kts
15-Nov-20 10:08 44.895330 -116.096524 327 5037ft 0kts
15-Nov-20 10:09 44.895330 -116.096524 327 5037ft 0kts
15-Nov-20 10:10 44.895330 -116.096524 327 5037ft 0kts

Navigation Log

Ident Type
Flight plan parsing failed, navigation log unavailable